Terminal Aerodrome Forecast
Issued by NWS Rapid City, SD

Home | Current Version | Previous Version | Graphics & Text | Print | Product List | Glossary On
Versions: 1 2 3 4 5 6 7 8 9 10 11 12 13 14 15 16
000
FTUS43 KUNR 221923 AAA
TAFRAP
TAF AMD
KRAP 221923Z 2219/2318 34015G25KT P6SM VCTS BKN050CB
      TEMPO 2219/2223 5SM -TSRA BKN025CB
     FM230000 33013KT P6SM BKN090=

USA.gov is the U.S. government's official web portal to all federal, state and local government web resources and services.